sensor_id;sensor_type;location;lat;lon;timestamp;temperature;humidity
21163;DHT22;10739;52.198;20.908;2022-08-19T00:01:40;22.80;99.90
21163;DHT22;10739;52.198;20.908;2022-08-19T00:04:11;23.00;99.90
21163;DHT22;10739;52.198;20.908;2022-08-19T00:06:40;22.90;99.90
21163;DHT22;10739;52.198;20.908;2022-08-19T00:09:10;22.90;99.90
21163;DHT22;10739;52.198;20.908;2022-08-19T00:11:38;22.90;99.90
21163;DHT22;10739;52.198;20.908;2022-08-19T00:14:08;22.80;99.90
21163;DHT22;10739;52.198;20.908;2022-08-19T00:16:38;22.80;99.90
21163;DHT22;10739;52.198;20.908;2022-08-19T00:19:06;22.70;99.90
21163;DHT22;10739;52.198;20.908;2022-08-19T00:21:33;22.70;99.90
21163;DHT22;10739;52.198;20.908;2022-08-19T00:24:04;22.60;99.90
21163;DHT22;10739;52.198;20.908;2022-08-19T00:26:31;22.60;99.90
21163;DHT22;10739;52.198;20.908;2022-08-19T00:28:57;22.50;99.90
21163;DHT22;10739;52.198;20.908;2022-08-19T00:31:27;22.40;99.90
21163;DHT22;10739;52.198;20.908;2022-08-19T00:33:54;22.40;99.90
21163;DHT22;10739;52.198;20.908;2022-08-19T00:36:20;22.30;99.90
21163;DHT22;10739;52.198;20.908;2022-08-19T00:38:47;22.30;99.90
21163;DHT22;10739;52.198;20.908;2022-08-19T00:41:14;22.30;99.90
21163;DHT22;10739;52.198;20.908;2022-08-19T00:44:18;22.20;99.90
21163;DHT22;10739;52.198;20.908;2022-08-19T00:46:49;22.30;99.90
21163;DHT22;10739;52.198;20.908;2022-08-19T00:49:21;22.20;99.90
21163;DHT22;10739;52.198;20.908;2022-08-19T00:51:55;22.30;99.90
21163;DHT22;10739;52.198;20.908;2022-08-19T00:54:29;22.20;99.90
21163;DHT22;10739;52.198;20.908;2022-08-19T00:56:58;22.10;99.90
21163;DHT22;10739;52.198;20.908;2022-08-19T00:59:27;22.10;99.90
21163;DHT22;10739;52.198;20.908;2022-08-19T01:01:54;22.10;99.90
21163;DHT22;10739;52.198;20.908;2022-08-19T01:04:21;22.10;99.90
21163;DHT22;10739;52.198;20.908;2022-08-19T01:06:47;22.00;99.90
21163;DHT22;10739;52.198;20.908;2022-08-19T01:09:13;22.00;99.90
21163;DHT22;10739;52.198;20.908;2022-08-19T01:11:42;21.90;99.90
21163;DHT22;10739;52.198;20.908;2022-08-19T01:14:10;21.90;99.90
21163;DHT22;10739;52.198;20.908;2022-08-19T01:16:39;21.90;99.90
21163;DHT22;10739;52.198;20.908;2022-08-19T01:19:35;21.90;99.90
21163;DHT22;10739;52.198;20.908;2022-08-19T01:24:49;21.80;99.90
21163;DHT22;10739;52.198;20.908;2022-08-19T01:27:18;21.80;99.90
21163;DHT22;10739;52.198;20.908;2022-08-19T01:29:45;21.80;99.90
21163;DHT22;10739;52.198;20.908;2022-08-19T01:32:14;21.70;99.90
21163;DHT22;10739;52.198;20.908;2022-08-19T01:34:42;21.70;99.90
21163;DHT22;10739;52.198;20.908;2022-08-19T01:37:14;21.70;99.90
21163;DHT22;10739;52.198;20.908;2022-08-19T01:39:41;21.70;99.90
21163;DHT22;10739;52.198;20.908;2022-08-19T01:42:09;21.60;99.90
21163;DHT22;10739;52.198;20.908;2022-08-19T01:44:39;21.60;99.90
21163;DHT22;10739;52.198;20.908;2022-08-19T01:47:07;21.70;99.90
21163;DHT22;10739;52.198;20.908;2022-08-19T01:49:35;21.70;99.90
21163;DHT22;10739;52.198;20.908;2022-08-19T01:52:04;21.70;99.90
21163;DHT22;10739;52.198;20.908;2022-08-19T01:54:31;21.80;99.90
21163;DHT22;10739;52.198;20.908;2022-08-19T01:57:03;21.80;99.90
21163;DHT22;10739;52.198;20.908;2022-08-19T01:59:33;21.80;99.90
21163;DHT22;10739;52.198;20.908;2022-08-19T02:02:04;21.90;99.90
21163;DHT22;10739;52.198;20.908;2022-08-19T02:04:33;21.90;99.90
21163;DHT22;10739;52.198;20.908;2022-08-19T02:07:00;21.90;99.90
21163;DHT22;10739;52.198;20.908;2022-08-19T02:09:26;21.80;99.90
21163;DHT22;10739;52.198;20.908;2022-08-19T02:11:53;21.90;99.90
21163;DHT22;10739;52.198;20.908;2022-08-19T02:14:19;21.90;99.90
21163;DHT22;10739;52.198;20.908;2022-08-19T02:16:45;21.90;99.90
21163;DHT22;10739;52.198;20.908;2022-08-19T02:19:11;21.90;99.90
21163;DHT22;10739;52.198;20.908;2022-08-19T02:21:37;21.90;99.90
21163;DHT22;10739;52.198;20.908;2022-08-19T02:24:03;22.00;99.90
21163;DHT22;10739;52.198;20.908;2022-08-19T02:26:30;21.90;99.90
21163;DHT22;10739;52.198;20.908;2022-08-19T02:28:57;21.90;99.90
21163;DHT22;10739;52.198;20.908;2022-08-19T02:31:25;21.90;99.90
21163;DHT22;10739;52.198;20.908;2022-08-19T02:33:54;21.90;99.90
21163;DHT22;10739;52.198;20.908;2022-08-19T02:36:22;21.90;99.90
21163;DHT22;10739;52.198;20.908;2022-08-19T02:38:50;22.00;99.90
21163;DHT22;10739;52.198;20.908;2022-08-19T02:41:19;22.00;99.90
21163;DHT22;10739;52.198;20.908;2022-08-19T02:43:48;22.10;99.90
21163;DHT22;10739;52.198;20.908;2022-08-19T02:46:31;22.00;99.90
21163;DHT22;10739;52.198;20.908;2022-08-19T02:49:01;22.00;99.90
21163;DHT22;10739;52.198;20.908;2022-08-19T02:51:36;22.00;99.90
21163;DHT22;10739;52.198;20.908;2022-08-19T02:54:06;22.00;99.90
21163;DHT22;10739;52.198;20.908;2022-08-19T02:56:35;22.00;99.90
21163;DHT22;10739;52.198;20.908;2022-08-19T02:59:03;21.90;99.90
21163;DHT22;10739;52.198;20.908;2022-08-19T03:01:34;21.90;99.90
21163;DHT22;10739;52.198;20.908;2022-08-19T03:04:03;21.80;99.90
21163;DHT22;10739;52.198;20.908;2022-08-19T03:06:31;21.80;99.90
21163;DHT22;10739;52.198;20.908;2022-08-19T03:09:01;21.80;99.90
21163;DHT22;10739;52.198;20.908;2022-08-19T03:11:30;21.70;99.90
21163;DHT22;10739;52.198;20.908;2022-08-19T03:13:59;21.70;99.90
21163;DHT22;10739;52.198;20.908;2022-08-19T03:16:28;21.70;99.90
21163;DHT22;10739;52.198;20.908;2022-08-19T03:18:57;21.70;99.90
21163;DHT22;10739;52.198;20.908;2022-08-19T03:21:28;21.70;99.90
21163;DHT22;10739;52.198;20.908;2022-08-19T03:23:58;21.70;99.90
21163;DHT22;10739;52.198;20.908;2022-08-19T03:26:27;21.70;99.90
21163;DHT22;10739;52.198;20.908;2022-08-19T03:28:53;21.70;99.90
21163;DHT22;10739;52.198;20.908;2022-08-19T03:31:22;21.60;99.90
21163;DHT22;10739;52.198;20.908;2022-08-19T03:33:50;21.70;99.90
21163;DHT22;10739;52.198;20.908;2022-08-19T03:36:19;21.60;99.90
21163;DHT22;10739;52.198;20.908;2022-08-19T03:38:57;21.60;99.90
21163;DHT22;10739;52.198;20.908;2022-08-19T03:41:31;21.60;99.90
21163;DHT22;10739;52.198;20.908;2022-08-19T03:44:08;21.60;99.90
21163;DHT22;10739;52.198;20.908;2022-08-19T03:46:35;21.60;99.90
21163;DHT22;10739;52.198;20.908;2022-08-19T03:49:04;21.60;99.90
21163;DHT22;10739;52.198;20.908;2022-08-19T03:51:35;21.60;99.90
21163;DHT22;10739;52.198;20.908;2022-08-19T03:54:07;21.60;99.90
21163;DHT22;10739;52.198;20.908;2022-08-19T03:56:36;21.60;99.90
21163;DHT22;10739;52.198;20.908;2022-08-19T03:59:07;21.60;99.90
21163;DHT22;10739;52.198;20.908;2022-08-19T04:01:35;21.60;99.90
21163;DHT22;10739;52.198;20.908;2022-08-19T04:04:02;21.60;99.90
21163;DHT22;10739;52.198;20.908;2022-08-19T04:06:32;21.60;99.90
21163;DHT22;10739;52.198;20.908;2022-08-19T04:09:02;21.60;99.90
21163;DHT22;10739;52.198;20.908;2022-08-19T04:11:34;21.70;99.90
21163;DHT22;10739;52.198;20.908;2022-08-19T04:14:15;21.70;99.90
21163;DHT22;10739;52.198;20.908;2022-08-19T04:16:44;21.80;99.90
21163;DHT22;10739;52.198;20.908;2022-08-19T04:19:13;21.80;99.90
21163;DHT22;10739;52.198;20.908;2022-08-19T04:21:44;21.90;99.90
21163;DHT22;10739;52.198;20.908;2022-08-19T04:24:13;22.00;99.90
21163;DHT22;10739;52.198;20.908;2022-08-19T04:26:40;22.10;99.90
21163;DHT22;10739;52.198;20.908;2022-08-19T04:29:13;22.10;99.90
21163;DHT22;10739;52.198;20.908;2022-08-19T04:31:43;22.20;99.90
21163;DHT22;10739;52.198;20.908;2022-08-19T04:34:12;22.40;99.90
21163;DHT22;10739;52.198;20.908;2022-08-19T04:36:43;22.40;99.90
21163;DHT22;10739;52.198;20.908;2022-08-19T04:39:16;22.50;99.90
21163;DHT22;10739;52.198;20.908;2022-08-19T04:41:44;22.60;99.90
21163;DHT22;10739;52.198;20.908;2022-08-19T04:44:34;22.70;99.90
21163;DHT22;10739;52.198;20.908;2022-08-19T04:47:02;22.80;99.90
21163;DHT22;10739;52.198;20.908;2022-08-19T04:49:31;22.90;99.90
21163;DHT22;10739;52.198;20.908;2022-08-19T04:51:57;22.90;99.90
21163;DHT22;10739;52.198;20.908;2022-08-19T04:54:24;23.00;99.90
21163;DHT22;10739;52.198;20.908;2022-08-19T04:56:52;23.10;99.90
21163;DHT22;10739;52.198;20.908;2022-08-19T04:59:20;23.20;99.90
21163;DHT22;10739;52.198;20.908;2022-08-19T05:01:47;23.30;99.90
21163;DHT22;10739;52.198;20.908;2022-08-19T05:04:19;23.20;99.90
21163;DHT22;10739;52.198;20.908;2022-08-19T05:06:47;23.20;99.90
21163;DHT22;10739;52.198;20.908;2022-08-19T05:09:15;23.20;99.90
21163;DHT22;10739;52.198;20.908;2022-08-19T05:11:43;23.30;99.90
21163;DHT22;10739;52.198;20.908;2022-08-19T05:14:10;23.20;99.90
21163;DHT22;10739;52.198;20.908;2022-08-19T05:16:39;23.20;99.90
21163;DHT22;10739;52.198;20.908;2022-08-19T05:19:05;23.30;99.90
21163;DHT22;10739;52.198;20.908;2022-08-19T05:21:51;23.20;99.90
21163;DHT22;10739;52.198;20.908;2022-08-19T05:24:36;23.20;99.90
21163;DHT22;10739;52.198;20.908;2022-08-19T05:27:02;23.20;99.90
21163;DHT22;10739;52.198;20.908;2022-08-19T05:29:32;23.20;99.90
21163;DHT22;10739;52.198;20.908;2022-08-19T05:32:06;23.20;99.90
21163;DHT22;10739;52.198;20.908;2022-08-19T05:34:36;23.20;99.90
21163;DHT22;10739;52.198;20.908;2022-08-19T05:37:06;23.30;99.90
21163;DHT22;10739;52.198;20.908;2022-08-19T05:39:36;23.40;99.90
21163;DHT22;10739;52.198;20.908;2022-08-19T05:42:05;23.50;99.90
21163;DHT22;10739;52.198;20.908;2022-08-19T05:44:38;23.50;99.90
21163;DHT22;10739;52.198;20.908;2022-08-19T05:47:09;23.60;99.90
21163;DHT22;10739;52.198;20.908;2022-08-19T05:49:37;23.70;99.90
21163;DHT22;10739;52.198;20.908;2022-08-19T05:52:09;23.90;99.90
21163;DHT22;10739;52.198;20.908;2022-08-19T05:54:38;23.90;99.90
21163;DHT22;10739;52.198;20.908;2022-08-19T05:57:08;24.00;99.90
21163;DHT22;10739;52.198;20.908;2022-08-19T05:59:34;23.90;99.90
21163;DHT22;10739;52.198;20.908;2022-08-19T06:02:03;23.90;99.90
21163;DHT22;10739;52.198;20.908;2022-08-19T06:04:30;24.00;99.90
21163;DHT22;10739;52.198;20.908;2022-08-19T06:06:56;24.20;99.90
21163;DHT22;10739;52.198;20.908;2022-08-19T06:09:24;24.30;99.90
21163;DHT22;10739;52.198;20.908;2022-08-19T06:11:53;24.40;99.90
21163;DHT22;10739;52.198;20.908;2022-08-19T06:14:31;24.50;99.90
21163;DHT22;10739;52.198;20.908;2022-08-19T06:16:59;24.60;99.90
21163;DHT22;10739;52.198;20.908;2022-08-19T06:19:28;24.50;99.90
21163;DHT22;10739;52.198;20.908;2022-08-19T06:21:56;24.60;99.90
21163;DHT22;10739;52.198;20.908;2022-08-19T06:24:25;24.50;99.90
21163;DHT22;10739;52.198;20.908;2022-08-19T06:26:54;24.50;99.90
21163;DHT22;10739;52.198;20.908;2022-08-19T06:29:24;24.50;99.90
21163;DHT22;10739;52.198;20.908;2022-08-19T06:31:56;24.60;99.90
21163;DHT22;10739;52.198;20.908;2022-08-19T06:34:26;24.70;99.90
21163;DHT22;10739;52.198;20.908;2022-08-19T06:36:55;24.80;99.90
21163;DHT22;10739;52.198;20.908;2022-08-19T06:39:27;24.80;99.90
21163;DHT22;10739;52.198;20.908;2022-08-19T06:42:00;24.80;99.90
21163;DHT22;10739;52.198;20.908;2022-08-19T06:44:30;24.90;99.90
21163;DHT22;10739;52.198;20.908;2022-08-19T06:47:05;24.90;99.90
21163;DHT22;10739;52.198;20.908;2022-08-19T06:49:34;24.80;99.90
21163;DHT22;10739;52.198;20.908;2022-08-19T06:52:02;24.80;99.90
21163;DHT22;10739;52.198;20.908;2022-08-19T06:54:30;24.80;99.90
21163;DHT22;10739;52.198;20.908;2022-08-19T06:56:58;24.90;99.90
21163;DHT22;10739;52.198;20.908;2022-08-19T06:59:28;25.10;99.90
21163;DHT22;10739;52.198;20.908;2022-08-19T07:02:01;25.20;99.90
21163;DHT22;10739;52.198;20.908;2022-08-19T07:04:32;25.30;99.90
21163;DHT22;10739;52.198;20.908;2022-08-19T07:07:03;25.40;99.90
21163;DHT22;10739;52.198;20.908;2022-08-19T07:09:33;25.60;99.90
21163;DHT22;10739;52.198;20.908;2022-08-19T07:11:59;25.80;99.90
21163;DHT22;10739;52.198;20.908;2022-08-19T07:14:27;26.00;99.90
21163;DHT22;10739;52.198;20.908;2022-08-19T07:16:55;26.20;99.90
21163;DHT22;10739;52.198;20.908;2022-08-19T07:19:25;26.30;99.90
21163;DHT22;10739;52.198;20.908;2022-08-19T07:21:53;26.50;99.90
21163;DHT22;10739;52.198;20.908;2022-08-19T07:24:21;26.50;99.90
21163;DHT22;10739;52.198;20.908;2022-08-19T07:26:52;26.70;99.90
21163;DHT22;10739;52.198;20.908;2022-08-19T07:29:20;27.00;99.90
21163;DHT22;10739;52.198;20.908;2022-08-19T07:31:52;27.20;99.90
21163;DHT22;10739;52.198;20.908;2022-08-19T07:34:22;27.20;99.90
21163;DHT22;10739;52.198;20.908;2022-08-19T07:36:50;27.30;99.90
21163;DHT22;10739;52.198;20.908;2022-08-19T07:39:19;27.30;99.90
21163;DHT22;10739;52.198;20.908;2022-08-19T07:41:50;27.40;99.90
21163;DHT22;10739;52.198;20.908;2022-08-19T07:44:18;27.60;99.90
21163;DHT22;10739;52.198;20.908;2022-08-19T07:46:48;27.70;99.90
21163;DHT22;10739;52.198;20.908;2022-08-19T07:49:19;27.60;99.90
21163;DHT22;10739;52.198;20.908;2022-08-19T07:51:55;27.60;99.90
21163;DHT22;10739;52.198;20.908;2022-08-19T07:54:29;27.60;99.90
21163;DHT22;10739;52.198;20.908;2022-08-19T07:56:57;27.60;99.90
21163;DHT22;10739;52.198;20.908;2022-08-19T07:59:24;27.70;99.90
21163;DHT22;10739;52.198;20.908;2022-08-19T08:01:51;27.70;99.90
21163;DHT22;10739;52.198;20.908;2022-08-19T08:04:18;27.70;99.90
21163;DHT22;10739;52.198;20.908;2022-08-19T08:07:05;27.60;99.90
21163;DHT22;10739;52.198;20.908;2022-08-19T08:09:51;27.70;99.90
21163;DHT22;10739;52.198;20.908;2022-08-19T08:12:22;27.80;99.90
21163;DHT22;10739;52.198;20.908;2022-08-19T08:14:59;28.00;99.90
21163;DHT22;10739;52.198;20.908;2022-08-19T08:17:30;28.10;99.90
21163;DHT22;10739;52.198;20.908;2022-08-19T08:19:57;28.20;99.90
21163;DHT22;10739;52.198;20.908;2022-08-19T08:22:24;28.30;99.90
21163;DHT22;10739;52.198;20.908;2022-08-19T08:25:15;28.50;99.90
21163;DHT22;10739;52.198;20.908;2022-08-19T08:27:45;28.70;99.90
21163;DHT22;10739;52.198;20.908;2022-08-19T08:30:15;28.70;99.90
21163;DHT22;10739;52.198;20.908;2022-08-19T08:32:44;28.90;99.90
21163;DHT22;10739;52.198;20.908;2022-08-19T08:35:14;29.10;99.90
21163;DHT22;10739;52.198;20.908;2022-08-19T08:37:43;29.20;99.90
21163;DHT22;10739;52.198;20.908;2022-08-19T08:40:32;29.40;99.90
21163;DHT22;10739;52.198;20.908;2022-08-19T08:45:34;29.70;99.90
21163;DHT22;10739;52.198;20.908;2022-08-19T08:48:41;29.90;99.90
21163;DHT22;10739;52.198;20.908;2022-08-19T08:51:11;30.20;99.90
21163;DHT22;10739;52.198;20.908;2022-08-19T08:53:42;30.20;99.90
21163;DHT22;10739;52.198;20.908;2022-08-19T08:56:11;30.40;99.90
21163;DHT22;10739;52.198;20.908;2022-08-19T08:59:57;30.50;99.90
21163;DHT22;10739;52.198;20.908;2022-08-19T09:01:59;30.10;99.90
21163;DHT22;10739;52.198;20.908;2022-08-19T09:04:26;30.30;99.90
21163;DHT22;10739;52.198;20.908;2022-08-19T09:10:15;30.90;99.90
21163;DHT22;10739;52.198;20.908;2022-08-19T09:16:10;31.70;99.90
21163;DHT22;10739;52.198;20.908;2022-08-19T09:18:43;32.10;99.90
21163;DHT22;10739;52.198;20.908;2022-08-19T09:21:22;32.60;99.90
21163;DHT22;10739;52.198;20.908;2022-08-19T09:23:49;33.00;99.90
21163;DHT22;10739;52.198;20.908;2022-08-19T09:26:22;33.20;99.90
21163;DHT22;10739;52.198;20.908;2022-08-19T09:28:51;33.30;99.90
21163;DHT22;10739;52.198;20.908;2022-08-19T09:31:23;33.60;99.90
21163;DHT22;10739;52.198;20.908;2022-08-19T09:33:52;33.50;99.90
21163;DHT22;10739;52.198;20.908;2022-08-19T09:36:23;33.80;99.90
21163;DHT22;10739;52.198;20.908;2022-08-19T09:38:52;34.40;99.90
21163;DHT22;10739;52.198;20.908;2022-08-19T09:41:21;34.50;99.90
21163;DHT22;10739;52.198;20.908;2022-08-19T09:43:51;34.50;99.90
21163;DHT22;10739;52.198;20.908;2022-08-19T09:46:23;34.00;99.90
21163;DHT22;10739;52.198;20.908;2022-08-19T09:48:52;34.20;99.90
21163;DHT22;10739;52.198;20.908;2022-08-19T09:51:23;34.00;99.90
21163;DHT22;10739;52.198;20.908;2022-08-19T09:53:52;34.50;99.90
21163;DHT22;10739;52.198;20.908;2022-08-19T09:56:22;34.50;99.90
21163;DHT22;10739;52.198;20.908;2022-08-19T09:58:48;34.50;99.90
21163;DHT22;10739;52.198;20.908;2022-08-19T10:01:20;34.80;99.90
21163;DHT22;10739;52.198;20.908;2022-08-19T10:03:50;35.20;99.90
21163;DHT22;10739;52.198;20.908;2022-08-19T10:06:20;35.80;99.90
21163;DHT22;10739;52.198;20.908;2022-08-19T10:08:54;35.30;99.90
21163;DHT22;10739;52.198;20.908;2022-08-19T10:11:21;35.20;99.90
21163;DHT22;10739;52.198;20.908;2022-08-19T10:13:47;35.50;99.90
21163;DHT22;10739;52.198;20.908;2022-08-19T10:16:18;35.70;99.90
21163;DHT22;10739;52.198;20.908;2022-08-19T10:18:49;35.60;99.90
21163;DHT22;10739;52.198;20.908;2022-08-19T10:21:20;35.80;99.90
21163;DHT22;10739;52.198;20.908;2022-08-19T10:23:50;36.00;99.90
21163;DHT22;10739;52.198;20.908;2022-08-19T10:26:21;36.00;99.90
21163;DHT22;10739;52.198;20.908;2022-08-19T10:28:50;36.40;99.90
21163;DHT22;10739;52.198;20.908;2022-08-19T10:31:19;36.70;99.90
21163;DHT22;10739;52.198;20.908;2022-08-19T10:33:51;36.30;99.90
21163;DHT22;10739;52.198;20.908;2022-08-19T10:36:34;36.00;99.90
21163;DHT22;10739;52.198;20.908;2022-08-19T10:39:07;35.80;99.90
21163;DHT22;10739;52.198;20.908;2022-08-19T10:41:35;35.70;99.90
21163;DHT22;10739;52.198;20.908;2022-08-19T10:44:06;36.20;99.90
21163;DHT22;10739;52.198;20.908;2022-08-19T10:46:37;36.00;99.70
21163;DHT22;10739;52.198;20.908;2022-08-19T10:49:06;36.20;99.50
21163;DHT22;10739;52.198;20.908;2022-08-19T10:51:34;36.30;99.90
21163;DHT22;10739;52.198;20.908;2022-08-19T10:54:20;36.60;99.40
21163;DHT22;10739;52.198;20.908;2022-08-19T10:56:46;37.10;99.00
21163;DHT22;10739;52.198;20.908;2022-08-19T10:59:23;37.10;98.50
21163;DHT22;10739;52.198;20.908;2022-08-19T11:01:51;37.10;98.90
21163;DHT22;10739;52.198;20.908;2022-08-19T11:04:19;37.20;96.70
21163;DHT22;10739;52.198;20.908;2022-08-19T11:06:47;37.00;96.80
21163;DHT22;10739;52.198;20.908;2022-08-19T11:09:19;36.70;97.60
21163;DHT22;10739;52.198;20.908;2022-08-19T11:11:47;36.90;97.60
21163;DHT22;10739;52.198;20.908;2022-08-19T11:14:15;37.50;96.70
21163;DHT22;10739;52.198;20.908;2022-08-19T11:16:47;37.60;95.90
21163;DHT22;10739;52.198;20.908;2022-08-19T11:19:14;37.70;95.70
21163;DHT22;10739;52.198;20.908;2022-08-19T11:21:47;37.40;95.70
21163;DHT22;10739;52.198;20.908;2022-08-19T11:24:16;37.40;96.00
21163;DHT22;10739;52.198;20.908;2022-08-19T11:26:46;36.70;97.50
21163;DHT22;10739;52.198;20.908;2022-08-19T11:29:18;36.60;97.10
21163;DHT22;10739;52.198;20.908;2022-08-19T11:31:48;36.70;96.90
21163;DHT22;10739;52.198;20.908;2022-08-19T11:34:18;36.70;97.20
21163;DHT22;10739;52.198;20.908;2022-08-19T11:36:47;36.50;97.70
21163;DHT22;10739;52.198;20.908;2022-08-19T11:39:18;36.80;96.00
21163;DHT22;10739;52.198;20.908;2022-08-19T11:41:46;36.40;95.90
21163;DHT22;10739;52.198;20.908;2022-08-19T11:44:13;36.00;95.50
21163;DHT22;10739;52.198;20.908;2022-08-19T11:46:41;35.60;97.20
21163;DHT22;10739;52.198;20.908;2022-08-19T11:49:17;35.50;98.10
21163;DHT22;10739;52.198;20.908;2022-08-19T11:51:44;35.80;98.80
21163;DHT22;10739;52.198;20.908;2022-08-19T11:54:12;36.20;98.60
21163;DHT22;10739;52.198;20.908;2022-08-19T11:56:41;36.50;97.30
21163;DHT22;10739;52.198;20.908;2022-08-19T11:59:08;36.10;96.10
21163;DHT22;10739;52.198;20.908;2022-08-19T12:01:36;35.90;96.20
21163;DHT22;10739;52.198;20.908;2022-08-19T12:04:02;36.00;95.10
21163;DHT22;10739;52.198;20.908;2022-08-19T12:06:32;36.40;95.30
21163;DHT22;10739;52.198;20.908;2022-08-19T12:09:03;36.30;95.50
21163;DHT22;10739;52.198;20.908;2022-08-19T12:11:32;36.20;95.10
21163;DHT22;10739;52.198;20.908;2022-08-19T12:13:58;36.80;95.30
21163;DHT22;10739;52.198;20.908;2022-08-19T12:16:26;36.80;94.80
21163;DHT22;10739;52.198;20.908;2022-08-19T12:18:56;36.70;93.90
21163;DHT22;10739;52.198;20.908;2022-08-19T12:21:26;36.60;92.70
21163;DHT22;10739;52.198;20.908;2022-08-19T12:23:57;36.80;92.90
21163;DHT22;10739;52.198;20.908;2022-08-19T12:26:26;36.90;92.90
21163;DHT22;10739;52.198;20.908;2022-08-19T12:28:53;37.00;93.00
21163;DHT22;10739;52.198;20.908;2022-08-19T12:31:20;37.10;93.00
21163;DHT22;10739;52.198;20.908;2022-08-19T12:33:47;37.20;92.90
21163;DHT22;10739;52.198;20.908;2022-08-19T12:36:15;36.90;93.00
21163;DHT22;10739;52.198;20.908;2022-08-19T12:38:43;36.80;92.50
21163;DHT22;10739;52.198;20.908;2022-08-19T12:41:13;36.70;92.90
21163;DHT22;10739;52.198;20.908;2022-08-19T12:43:43;37.10;92.90
21163;DHT22;10739;52.198;20.908;2022-08-19T12:46:10;37.00;92.90
21163;DHT22;10739;52.198;20.908;2022-08-19T12:48:37;37.10;92.70
21163;DHT22;10739;52.198;20.908;2022-08-19T12:51:09;37.20;92.50
21163;DHT22;10739;52.198;20.908;2022-08-19T12:53:36;37.50;92.00
21163;DHT22;10739;52.198;20.908;2022-08-19T12:56:03;37.60;91.70
21163;DHT22;10739;52.198;20.908;2022-08-19T12:58:30;37.80;91.40
21163;DHT22;10739;52.198;20.908;2022-08-19T13:00:57;37.70;91.40
21163;DHT22;10739;52.198;20.908;2022-08-19T13:03:23;37.40;91.20
21163;DHT22;10739;52.198;20.908;2022-08-19T13:05:54;37.10;91.40
21163;DHT22;10739;52.198;20.908;2022-08-19T13:08:21;36.40;91.50
21163;DHT22;10739;52.198;20.908;2022-08-19T13:10:47;36.40;91.80
21163;DHT22;10739;52.198;20.908;2022-08-19T13:13:13;36.70;91.90
21163;DHT22;10739;52.198;20.908;2022-08-19T13:15:41;37.00;91.90
21163;DHT22;10739;52.198;20.908;2022-08-19T13:18:09;36.70;92.10
21163;DHT22;10739;52.198;20.908;2022-08-19T13:20:38;36.50;92.60
21163;DHT22;10739;52.198;20.908;2022-08-19T13:23:06;36.80;92.50
21163;DHT22;10739;52.198;20.908;2022-08-19T13:25:33;37.30;92.60
21163;DHT22;10739;52.198;20.908;2022-08-19T13:28:00;37.80;91.40
21163;DHT22;10739;52.198;20.908;2022-08-19T13:30:26;37.90;90.60
21163;DHT22;10739;52.198;20.908;2022-08-19T13:33:10;38.00;90.40
21163;DHT22;10739;52.198;20.908;2022-08-19T13:38:09;37.30;91.30
21163;DHT22;10739;52.198;20.908;2022-08-19T13:40:36;37.40;90.50
21163;DHT22;10739;52.198;20.908;2022-08-19T13:43:04;37.40;90.50
21163;DHT22;10739;52.198;20.908;2022-08-19T13:45:32;37.60;90.50
21163;DHT22;10739;52.198;20.908;2022-08-19T13:48:01;37.30;90.20
21163;DHT22;10739;52.198;20.908;2022-08-19T13:50:39;36.70;90.60
21163;DHT22;10739;52.198;20.908;2022-08-19T13:53:09;36.80;90.60
21163;DHT22;10739;52.198;20.908;2022-08-19T13:55:38;36.80;90.90
21163;DHT22;10739;52.198;20.908;2022-08-19T13:58:05;36.90;90.60
21163;DHT22;10739;52.198;20.908;2022-08-19T14:00:35;36.90;90.70
21163;DHT22;10739;52.198;20.908;2022-08-19T14:03:04;37.00;90.60
21163;DHT22;10739;52.198;20.908;2022-08-19T14:05:31;36.70;90.80
21163;DHT22;10739;52.198;20.908;2022-08-19T14:07:58;36.50;90.50
21163;DHT22;10739;52.198;20.908;2022-08-19T14:10:26;36.50;90.40
21163;DHT22;10739;52.198;20.908;2022-08-19T14:12:55;36.50;90.20
21163;DHT22;10739;52.198;20.908;2022-08-19T14:15:24;36.70;90.30
21163;DHT22;10739;52.198;20.908;2022-08-19T14:17:51;36.60;89.70
21163;DHT22;10739;52.198;20.908;2022-08-19T14:20:18;36.70;90.00
21163;DHT22;10739;52.198;20.908;2022-08-19T14:22:46;36.50;89.80
21163;DHT22;10739;52.198;20.908;2022-08-19T14:25:25;36.90;90.00
21163;DHT22;10739;52.198;20.908;2022-08-19T14:27:53;37.00;88.90
21163;DHT22;10739;52.198;20.908;2022-08-19T14:30:23;36.80;88.60
21163;DHT22;10739;52.198;20.908;2022-08-19T14:33:00;36.70;89.20
21163;DHT22;10739;52.198;20.908;2022-08-19T14:35:29;36.30;88.40
21163;DHT22;10739;52.198;20.908;2022-08-19T14:37:59;36.10;89.80
21163;DHT22;10739;52.198;20.908;2022-08-19T14:40:28;36.10;89.30
21163;DHT22;10739;52.198;20.908;2022-08-19T14:42:57;36.10;88.70
21163;DHT22;10739;52.198;20.908;2022-08-19T14:45:31;36.00;89.30
21163;DHT22;10739;52.198;20.908;2022-08-19T14:47:59;36.10;89.20
21163;DHT22;10739;52.198;20.908;2022-08-19T14:50:26;36.10;89.50
21163;DHT22;10739;52.198;20.908;2022-08-19T14:53:01;36.00;88.50
21163;DHT22;10739;52.198;20.908;2022-08-19T14:55:31;35.80;89.00
21163;DHT22;10739;52.198;20.908;2022-08-19T14:57:57;35.60;89.40
21163;DHT22;10739;52.198;20.908;2022-08-19T15:00:24;35.40;89.20
21163;DHT22;10739;52.198;20.908;2022-08-19T15:02:50;34.80;90.20
21163;DHT22;10739;52.198;20.908;2022-08-19T15:05:17;34.50;90.40
21163;DHT22;10739;52.198;20.908;2022-08-19T15:07:43;34.00;90.90
21163;DHT22;10739;52.198;20.908;2022-08-19T15:10:12;33.50;91.40
21163;DHT22;10739;52.198;20.908;2022-08-19T15:12:40;33.40;92.00
21163;DHT22;10739;52.198;20.908;2022-08-19T15:15:13;33.20;91.80
21163;DHT22;10739;52.198;20.908;2022-08-19T15:17:44;33.10;92.30
21163;DHT22;10739;52.198;20.908;2022-08-19T15:20:18;33.00;92.30
21163;DHT22;10739;52.198;20.908;2022-08-19T15:22:47;33.00;92.50
21163;DHT22;10739;52.198;20.908;2022-08-19T15:25:15;32.80;92.60
21163;DHT22;10739;52.198;20.908;2022-08-19T15:27:44;32.70;92.40
21163;DHT22;10739;52.198;20.908;2022-08-19T15:30:11;32.50;92.90
21163;DHT22;10739;52.198;20.908;2022-08-19T15:32:38;32.30;92.90
21163;DHT22;10739;52.198;20.908;2022-08-19T15:35:05;32.10;93.60
21163;DHT22;10739;52.198;20.908;2022-08-19T15:37:32;32.10;93.80
21163;DHT22;10739;52.198;20.908;2022-08-19T15:39:58;32.20;93.90
21163;DHT22;10739;52.198;20.908;2022-08-19T15:42:24;32.20;94.20
21163;DHT22;10739;52.198;20.908;2022-08-19T15:44:52;32.10;94.40
21163;DHT22;10739;52.198;20.908;2022-08-19T15:47:18;32.00;94.30